sensor_id;sensor_type;location;lat;lon;timestamp;temperature;humidity
3071;DHT22;1546;47.208;9.038;2023-05-10T00:01:44;14.10;99.90
3071;DHT22;1546;47.208;9.038;2023-05-10T00:04:11;14.10;99.90
3071;DHT22;1546;47.208;9.038;2023-05-10T00:06:38;14.20;99.90
3071;DHT22;1546;47.208;9.038;2023-05-10T00:09:05;14.10;99.90
3071;DHT22;1546;47.208;9.038;2023-05-10T00:11:32;14.00;99.90
3071;DHT22;1546;47.208;9.038;2023-05-10T00:14:00;13.70;99.90
3071;DHT22;1546;47.208;9.038;2023-05-10T00:16:27;13.60;99.90
3071;DHT22;1546;47.208;9.038;2023-05-10T00:18:54;13.40;99.90
3071;DHT22;1546;47.208;9.038;2023-05-10T00:21:21;13.40;99.90
3071;DHT22;1546;47.208;9.038;2023-05-10T00:23:48;13.40;99.90
3071;DHT22;1546;47.208;9.038;2023-05-10T00:26:15;13.40;99.90
3071;DHT22;1546;47.208;9.038;2023-05-10T00:28:42;13.50;99.90
3071;DHT22;1546;47.208;9.038;2023-05-10T00:31:10;13.70;99.90
3071;DHT22;1546;47.208;9.038;2023-05-10T00:33:37;13.70;99.90
3071;DHT22;1546;47.208;9.038;2023-05-10T00:36:04;13.70;99.90
3071;DHT22;1546;47.208;9.038;2023-05-10T00:38:33;13.80;99.90
3071;DHT22;1546;47.208;9.038;2023-05-10T00:41:00;13.80;99.90
3071;DHT22;1546;47.208;9.038;2023-05-10T00:43:27;13.80;99.90
3071;DHT22;1546;47.208;9.038;2023-05-10T00:45:54;13.80;99.90
3071;DHT22;1546;47.208;9.038;2023-05-10T00:48:22;13.90;99.90
3071;DHT22;1546;47.208;9.038;2023-05-10T00:50:49;13.90;99.90
3071;DHT22;1546;47.208;9.038;2023-05-10T00:53:16;14.00;99.90
3071;DHT22;1546;47.208;9.038;2023-05-10T00:55:44;14.00;99.90
3071;DHT22;1546;47.208;9.038;2023-05-10T00:58:11;14.00;99.90
3071;DHT22;1546;47.208;9.038;2023-05-10T01:00:41;14.10;99.90
3071;DHT22;1546;47.208;9.038;2023-05-10T01:03:10;14.10;99.90
3071;DHT22;1546;47.208;9.038;2023-05-10T01:05:38;14.00;99.90
3071;DHT22;1546;47.208;9.038;2023-05-10T01:08:05;14.00;99.90
3071;DHT22;1546;47.208;9.038;2023-05-10T01:10:32;14.00;99.90
3071;DHT22;1546;47.208;9.038;2023-05-10T01:12:59;14.00;99.90
3071;DHT22;1546;47.208;9.038;2023-05-10T01:15:26;13.90;99.90
3071;DHT22;1546;47.208;9.038;2023-05-10T01:17:54;13.90;99.90
3071;DHT22;1546;47.208;9.038;2023-05-10T01:20:21;13.80;99.90
3071;DHT22;1546;47.208;9.038;2023-05-10T01:23:14;13.70;99.90
3071;DHT22;1546;47.208;9.038;2023-05-10T01:26:07;13.70;99.90
3071;DHT22;1546;47.208;9.038;2023-05-10T01:29:05;13.70;99.90
3071;DHT22;1546;47.208;9.038;2023-05-10T01:34:50;13.60;99.90
3071;DHT22;1546;47.208;9.038;2023-05-10T01:37:22;13.60;99.90
3071;DHT22;1546;47.208;9.038;2023-05-10T01:39:58;13.60;99.90
3071;DHT22;1546;47.208;9.038;2023-05-10T01:42:29;13.60;99.90
3071;DHT22;1546;47.208;9.038;2023-05-10T01:45:07;13.70;99.90
3071;DHT22;1546;47.208;9.038;2023-05-10T01:47:40;13.80;99.90
3071;DHT22;1546;47.208;9.038;2023-05-10T01:50:10;13.90;99.90
3071;DHT22;1546;47.208;9.038;2023-05-10T01:52:42;13.80;99.90
3071;DHT22;1546;47.208;9.038;2023-05-10T01:55:18;13.90;99.90
3071;DHT22;1546;47.208;9.038;2023-05-10T01:57:46;14.00;99.90
3071;DHT22;1546;47.208;9.038;2023-05-10T02:00:15;13.90;99.90
3071;DHT22;1546;47.208;9.038;2023-05-10T02:02:45;13.90;99.90
3071;DHT22;1546;47.208;9.038;2023-05-10T02:05:13;14.00;99.90
3071;DHT22;1546;47.208;9.038;2023-05-10T02:07:41;13.90;99.90
3071;DHT22;1546;47.208;9.038;2023-05-10T02:10:10;13.70;99.90
3071;DHT22;1546;47.208;9.038;2023-05-10T02:12:41;13.80;99.90
3071;DHT22;1546;47.208;9.038;2023-05-10T02:15:09;13.80;99.90
3071;DHT22;1546;47.208;9.038;2023-05-10T02:17:37;13.70;99.90
3071;DHT22;1546;47.208;9.038;2023-05-10T02:20:09;13.70;99.90
3071;DHT22;1546;47.208;9.038;2023-05-10T02:22:36;13.70;99.90
3071;DHT22;1546;47.208;9.038;2023-05-10T02:25:06;13.80;99.90
3071;DHT22;1546;47.208;9.038;2023-05-10T02:27:35;13.70;99.90
3071;DHT22;1546;47.208;9.038;2023-05-10T02:30:05;13.80;99.90
3071;DHT22;1546;47.208;9.038;2023-05-10T02:32:34;13.80;99.90
3071;DHT22;1546;47.208;9.038;2023-05-10T02:35:02;13.80;99.90
3071;DHT22;1546;47.208;9.038;2023-05-10T02:37:31;13.90;99.90
3071;DHT22;1546;47.208;9.038;2023-05-10T02:40:00;13.90;99.90
3071;DHT22;1546;47.208;9.038;2023-05-10T02:42:32;13.80;99.90
3071;DHT22;1546;47.208;9.038;2023-05-10T02:45:01;13.90;99.90
3071;DHT22;1546;47.208;9.038;2023-05-10T02:47:29;14.00;99.90
3071;DHT22;1546;47.208;9.038;2023-05-10T02:49:56;14.00;99.90
3071;DHT22;1546;47.208;9.038;2023-05-10T02:52:25;14.00;99.90
3071;DHT22;1546;47.208;9.038;2023-05-10T02:54:55;13.90;99.90
3071;DHT22;1546;47.208;9.038;2023-05-10T02:57:27;13.70;99.90
3071;DHT22;1546;47.208;9.038;2023-05-10T02:59:55;13.80;99.90
3071;DHT22;1546;47.208;9.038;2023-05-10T03:02:22;13.80;99.90
3071;DHT22;1546;47.208;9.038;2023-05-10T03:04:49;13.80;99.90
3071;DHT22;1546;47.208;9.038;2023-05-10T03:07:16;13.80;99.90
3071;DHT22;1546;47.208;9.038;2023-05-10T03:09:46;13.70;99.90
3071;DHT22;1546;47.208;9.038;2023-05-10T03:12:20;13.60;99.90
3071;DHT22;1546;47.208;9.038;2023-05-10T03:14:57;13.40;99.90
3071;DHT22;1546;47.208;9.038;2023-05-10T03:17:30;13.30;99.90
3071;DHT22;1546;47.208;9.038;2023-05-10T03:20:04;13.30;99.90
3071;DHT22;1546;47.208;9.038;2023-05-10T03:22:37;13.20;99.90
3071;DHT22;1546;47.208;9.038;2023-05-10T03:25:06;13.40;99.90
3071;DHT22;1546;47.208;9.038;2023-05-10T03:27:36;13.50;99.90
3071;DHT22;1546;47.208;9.038;2023-05-10T03:30:06;13.70;99.90
3071;DHT22;1546;47.208;9.038;2023-05-10T03:32:34;13.60;99.90
3071;DHT22;1546;47.208;9.038;2023-05-10T03:35:05;13.60;99.90
3071;DHT22;1546;47.208;9.038;2023-05-10T03:37:32;13.60;99.90
3071;DHT22;1546;47.208;9.038;2023-05-10T03:39:59;13.70;99.90
3071;DHT22;1546;47.208;9.038;2023-05-10T03:42:26;13.70;99.90
3071;DHT22;1546;47.208;9.038;2023-05-10T03:44:55;13.60;99.90
3071;DHT22;1546;47.208;9.038;2023-05-10T03:47:21;13.60;99.90
3071;DHT22;1546;47.208;9.038;2023-05-10T03:49:48;13.60;99.90
3071;DHT22;1546;47.208;9.038;2023-05-10T03:52:15;13.60;99.90
3071;DHT22;1546;47.208;9.038;2023-05-10T03:54:42;13.70;99.90
3071;DHT22;1546;47.208;9.038;2023-05-10T03:57:09;13.70;99.90
3071;DHT22;1546;47.208;9.038;2023-05-10T03:59:36;13.70;99.90
3071;DHT22;1546;47.208;9.038;2023-05-10T04:02:04;13.70;99.90
3071;DHT22;1546;47.208;9.038;2023-05-10T04:04:31;13.70;99.90
3071;DHT22;1546;47.208;9.038;2023-05-10T04:06:58;13.70;99.90
3071;DHT22;1546;47.208;9.038;2023-05-10T04:09:24;13.60;99.90
3071;DHT22;1546;47.208;9.038;2023-05-10T04:11:51;13.60;99.90
3071;DHT22;1546;47.208;9.038;2023-05-10T04:14:18;13.70;99.90
3071;DHT22;1546;47.208;9.038;2023-05-10T04:16:45;13.60;99.90
3071;DHT22;1546;47.208;9.038;2023-05-10T04:19:13;13.60;99.90
3071;DHT22;1546;47.208;9.038;2023-05-10T04:21:40;13.60;99.90
3071;DHT22;1546;47.208;9.038;2023-05-10T04:24:07;13.60;99.90
3071;DHT22;1546;47.208;9.038;2023-05-10T04:26:34;13.50;99.90
3071;DHT22;1546;47.208;9.038;2023-05-10T04:29:01;13.50;99.90
3071;DHT22;1546;47.208;9.038;2023-05-10T04:31:28;13.40;99.90
3071;DHT22;1546;47.208;9.038;2023-05-10T04:33:54;13.50;99.90
3071;DHT22;1546;47.208;9.038;2023-05-10T04:36:23;13.40;99.90
3071;DHT22;1546;47.208;9.038;2023-05-10T04:38:49;13.40;99.90
3071;DHT22;1546;47.208;9.038;2023-05-10T04:41:16;13.40;99.90
3071;DHT22;1546;47.208;9.038;2023-05-10T04:43:43;13.40;99.90
3071;DHT22;1546;47.208;9.038;2023-05-10T04:46:10;13.40;99.90
3071;DHT22;1546;47.208;9.038;2023-05-10T04:48:36;13.40;99.90
3071;DHT22;1546;47.208;9.038;2023-05-10T04:51:03;13.40;99.90
3071;DHT22;1546;47.208;9.038;2023-05-10T04:53:33;13.50;99.90
3071;DHT22;1546;47.208;9.038;2023-05-10T04:56:00;13.50;99.90
3071;DHT22;1546;47.208;9.038;2023-05-10T04:58:26;13.50;99.90
3071;DHT22;1546;47.208;9.038;2023-05-10T05:00:53;13.50;99.90
3071;DHT22;1546;47.208;9.038;2023-05-10T05:03:20;13.50;99.90
3071;DHT22;1546;47.208;9.038;2023-05-10T05:05:47;13.50;99.90
3071;DHT22;1546;47.208;9.038;2023-05-10T05:08:14;13.50;99.90
3071;DHT22;1546;47.208;9.038;2023-05-10T05:10:42;13.50;99.90
3071;DHT22;1546;47.208;9.038;2023-05-10T05:13:09;13.50;99.90
3071;DHT22;1546;47.208;9.038;2023-05-10T05:15:36;13.50;99.90
3071;DHT22;1546;47.208;9.038;2023-05-10T05:18:03;13.50;99.90
3071;DHT22;1546;47.208;9.038;2023-05-10T05:20:32;13.50;99.90
3071;DHT22;1546;47.208;9.038;2023-05-10T05:22:58;13.40;99.90
3071;DHT22;1546;47.208;9.038;2023-05-10T05:25:26;13.50;99.90
3071;DHT22;1546;47.208;9.038;2023-05-10T05:27:54;13.50;99.90
3071;DHT22;1546;47.208;9.038;2023-05-10T05:30:21;13.40;99.90
3071;DHT22;1546;47.208;9.038;2023-05-10T05:32:48;13.30;99.90
3071;DHT22;1546;47.208;9.038;2023-05-10T05:35:15;13.10;99.90
3071;DHT22;1546;47.208;9.038;2023-05-10T05:37:41;12.70;99.90
3071;DHT22;1546;47.208;9.038;2023-05-10T05:40:11;12.40;99.90
3071;DHT22;1546;47.208;9.038;2023-05-10T05:42:38;12.30;99.90
3071;DHT22;1546;47.208;9.038;2023-05-10T05:45:08;12.30;99.90
3071;DHT22;1546;47.208;9.038;2023-05-10T05:47:38;12.30;99.90
3071;DHT22;1546;47.208;9.038;2023-05-10T05:50:06;12.50;99.90
3071;DHT22;1546;47.208;9.038;2023-05-10T05:52:33;12.70;99.90
3071;DHT22;1546;47.208;9.038;2023-05-10T05:55:00;12.80;99.90
3071;DHT22;1546;47.208;9.038;2023-05-10T05:57:26;12.80;99.90
3071;DHT22;1546;47.208;9.038;2023-05-10T05:59:53;12.90;99.90
3071;DHT22;1546;47.208;9.038;2023-05-10T06:02:21;13.00;99.90
3071;DHT22;1546;47.208;9.038;2023-05-10T06:04:48;13.00;99.90
3071;DHT22;1546;47.208;9.038;2023-05-10T06:07:15;13.00;99.90
3071;DHT22;1546;47.208;9.038;2023-05-10T06:09:42;13.10;99.90
3071;DHT22;1546;47.208;9.038;2023-05-10T06:12:09;13.10;99.90
3071;DHT22;1546;47.208;9.038;2023-05-10T06:14:37;13.00;99.90
3071;DHT22;1546;47.208;9.038;2023-05-10T06:17:04;13.00;99.90
3071;DHT22;1546;47.208;9.038;2023-05-10T06:19:33;13.00;99.90
3071;DHT22;1546;47.208;9.038;2023-05-10T06:22:00;13.10;99.90
3071;DHT22;1546;47.208;9.038;2023-05-10T06:24:27;13.20;99.90
3071;DHT22;1546;47.208;9.038;2023-05-10T06:26:54;13.20;99.90
3071;DHT22;1546;47.208;9.038;2023-05-10T06:29:20;13.30;99.90
3071;DHT22;1546;47.208;9.038;2023-05-10T06:31:47;13.20;99.90
3071;DHT22;1546;47.208;9.038;2023-05-10T06:34:14;13.10;99.90
3071;DHT22;1546;47.208;9.038;2023-05-10T06:36:42;13.10;99.90
3071;DHT22;1546;47.208;9.038;2023-05-10T06:39:09;13.10;99.90
3071;DHT22;1546;47.208;9.038;2023-05-10T06:41:37;13.10;99.90
3071;DHT22;1546;47.208;9.038;2023-05-10T06:44:04;13.10;99.90
3071;DHT22;1546;47.208;9.038;2023-05-10T06:46:31;13.20;99.90
3071;DHT22;1546;47.208;9.038;2023-05-10T06:48:57;13.20;99.90
3071;DHT22;1546;47.208;9.038;2023-05-10T06:51:24;13.20;99.90
3071;DHT22;1546;47.208;9.038;2023-05-10T06:53:53;13.10;99.90
3071;DHT22;1546;47.208;9.038;2023-05-10T06:56:20;13.10;99.90
3071;DHT22;1546;47.208;9.038;2023-05-10T06:58:47;13.20;99.90
3071;DHT22;1546;47.208;9.038;2023-05-10T07:01:14;13.20;99.90
3071;DHT22;1546;47.208;9.038;2023-05-10T07:03:41;13.10;99.90
3071;DHT22;1546;47.208;9.038;2023-05-10T07:06:08;13.20;99.90
3071;DHT22;1546;47.208;9.038;2023-05-10T07:08:35;13.40;99.90
3071;DHT22;1546;47.208;9.038;2023-05-10T07:11:04;13.50;99.90
3071;DHT22;1546;47.208;9.038;2023-05-10T07:13:32;13.50;99.90
3071;DHT22;1546;47.208;9.038;2023-05-10T07:16:00;13.40;99.90
3071;DHT22;1546;47.208;9.038;2023-05-10T07:18:27;13.40;99.90
3071;DHT22;1546;47.208;9.038;2023-05-10T07:20:55;13.50;99.90
3071;DHT22;1546;47.208;9.038;2023-05-10T07:23:24;13.60;99.90
3071;DHT22;1546;47.208;9.038;2023-05-10T07:25:51;13.60;99.90
3071;DHT22;1546;47.208;9.038;2023-05-10T07:28:20;13.70;99.90
3071;DHT22;1546;47.208;9.038;2023-05-10T07:30:47;13.90;99.90
3071;DHT22;1546;47.208;9.038;2023-05-10T07:33:14;13.80;99.90
3071;DHT22;1546;47.208;9.038;2023-05-10T07:35:41;13.80;99.90
3071;DHT22;1546;47.208;9.038;2023-05-10T07:38:08;13.70;99.90
3071;DHT22;1546;47.208;9.038;2023-05-10T07:40:36;13.70;99.90
3071;DHT22;1546;47.208;9.038;2023-05-10T07:43:03;13.60;99.90
3071;DHT22;1546;47.208;9.038;2023-05-10T07:45:32;13.50;99.90
3071;DHT22;1546;47.208;9.038;2023-05-10T07:47:59;13.30;99.90
3071;DHT22;1546;47.208;9.038;2023-05-10T07:50:26;13.30;99.90
3071;DHT22;1546;47.208;9.038;2023-05-10T07:52:53;13.40;99.90
3071;DHT22;1546;47.208;9.038;2023-05-10T07:55:20;13.40;99.90
3071;DHT22;1546;47.208;9.038;2023-05-10T07:57:47;13.50;99.90
3071;DHT22;1546;47.208;9.038;2023-05-10T08:00:18;13.40;99.90
3071;DHT22;1546;47.208;9.038;2023-05-10T08:02:47;13.50;99.90
3071;DHT22;1546;47.208;9.038;2023-05-10T08:05:14;13.40;99.90
3071;DHT22;1546;47.208;9.038;2023-05-10T08:07:41;13.10;99.90
3071;DHT22;1546;47.208;9.038;2023-05-10T08:10:09;12.80;99.90
3071;DHT22;1546;47.208;9.038;2023-05-10T08:12:36;12.60;99.90
3071;DHT22;1546;47.208;9.038;2023-05-10T08:15:05;12.60;99.90
3071;DHT22;1546;47.208;9.038;2023-05-10T08:17:32;12.60;99.90
3071;DHT22;1546;47.208;9.038;2023-05-10T08:20:00;12.70;99.90
3071;DHT22;1546;47.208;9.038;2023-05-10T08:22:27;12.80;99.90
3071;DHT22;1546;47.208;9.038;2023-05-10T08:24:54;12.90;99.90
3071;DHT22;1546;47.208;9.038;2023-05-10T08:27:20;13.00;99.90
3071;DHT22;1546;47.208;9.038;2023-05-10T08:29:47;13.20;99.90
3071;DHT22;1546;47.208;9.038;2023-05-10T08:32:14;13.50;99.90
3071;DHT22;1546;47.208;9.038;2023-05-10T08:34:41;13.70;99.90
3071;DHT22;1546;47.208;9.038;2023-05-10T08:37:09;13.70;99.90
3071;DHT22;1546;47.208;9.038;2023-05-10T08:39:38;13.70;99.90
3071;DHT22;1546;47.208;9.038;2023-05-10T08:42:05;13.30;99.90
3071;DHT22;1546;47.208;9.038;2023-05-10T08:44:35;13.00;99.90
3071;DHT22;1546;47.208;9.038;2023-05-10T08:47:04;12.90;99.90
3071;DHT22;1546;47.208;9.038;2023-05-10T08:49:32;13.00;99.90
3071;DHT22;1546;47.208;9.038;2023-05-10T08:52:02;13.20;99.90
3071;DHT22;1546;47.208;9.038;2023-05-10T08:54:31;13.30;99.90
3071;DHT22;1546;47.208;9.038;2023-05-10T08:56:59;13.30;99.90
3071;DHT22;1546;47.208;9.038;2023-05-10T08:59:26;13.40;99.90
3071;DHT22;1546;47.208;9.038;2023-05-10T09:01:54;13.40;99.90
3071;DHT22;1546;47.208;9.038;2023-05-10T09:04:22;13.50;99.90
3071;DHT22;1546;47.208;9.038;2023-05-10T09:06:49;13.60;99.90
3071;DHT22;1546;47.208;9.038;2023-05-10T09:09:16;13.70;99.90
3071;DHT22;1546;47.208;9.038;2023-05-10T09:11:45;13.70;99.90
3071;DHT22;1546;47.208;9.038;2023-05-10T09:14:13;13.70;99.90
3071;DHT22;1546;47.208;9.038;2023-05-10T09:16:40;13.80;99.90
3071;DHT22;1546;47.208;9.038;2023-05-10T09:19:08;14.00;99.90
3071;DHT22;1546;47.208;9.038;2023-05-10T09:21:35;14.10;99.90
3071;DHT22;1546;47.208;9.038;2023-05-10T09:24:06;14.20;99.90
3071;DHT22;1546;47.208;9.038;2023-05-10T09:26:33;14.30;99.90
3071;DHT22;1546;47.208;9.038;2023-05-10T09:29:03;14.30;99.90
3071;DHT22;1546;47.208;9.038;2023-05-10T09:31:47;14.40;99.90
3071;DHT22;1546;47.208;9.038;2023-05-10T09:34:17;14.10;99.90
3071;DHT22;1546;47.208;9.038;2023-05-10T09:36:55;14.00;99.90
3071;DHT22;1546;47.208;9.038;2023-05-10T09:39:30;14.00;99.90
3071;DHT22;1546;47.208;9.038;2023-05-10T09:41:58;14.20;99.90
3071;DHT22;1546;47.208;9.038;2023-05-10T09:44:27;14.00;99.90
3071;DHT22;1546;47.208;9.038;2023-05-10T09:46:54;14.00;99.90
3071;DHT22;1546;47.208;9.038;2023-05-10T09:49:22;14.20;99.90
3071;DHT22;1546;47.208;9.038;2023-05-10T09:52:00;14.30;99.90
3071;DHT22;1546;47.208;9.038;2023-05-10T09:54:27;14.50;99.90
3071;DHT22;1546;47.208;9.038;2023-05-10T09:56:54;14.60;99.90
3071;DHT22;1546;47.208;9.038;2023-05-10T09:59:20;14.50;99.90
3071;DHT22;1546;47.208;9.038;2023-05-10T10:01:51;14.30;99.90
3071;DHT22;1546;47.208;9.038;2023-05-10T10:04:18;14.50;99.90
3071;DHT22;1546;47.208;9.038;2023-05-10T10:06:46;14.70;99.90
3071;DHT22;1546;47.208;9.038;2023-05-10T10:09:14;14.80;99.90
3071;DHT22;1546;47.208;9.038;2023-05-10T10:11:41;14.90;99.90
3071;DHT22;1546;47.208;9.038;2023-05-10T10:14:07;15.20;99.90
3071;DHT22;1546;47.208;9.038;2023-05-10T10:16:34;15.30;99.90
3071;DHT22;1546;47.208;9.038;2023-05-10T10:19:03;15.50;99.90
3071;DHT22;1546;47.208;9.038;2023-05-10T10:21:30;15.70;99.90
3071;DHT22;1546;47.208;9.038;2023-05-10T10:23:58;16.00;99.90
3071;DHT22;1546;47.208;9.038;2023-05-10T10:26:25;16.30;99.90
3071;DHT22;1546;47.208;9.038;2023-05-10T10:29:04;16.50;99.90
3071;DHT22;1546;47.208;9.038;2023-05-10T10:31:39;16.40;99.90
3071;DHT22;1546;47.208;9.038;2023-05-10T10:34:09;16.20;99.90
3071;DHT22;1546;47.208;9.038;2023-05-10T10:36:43;16.40;99.90
3071;DHT22;1546;47.208;9.038;2023-05-10T10:39:11;16.50;99.90
3071;DHT22;1546;47.208;9.038;2023-05-10T10:41:40;16.90;99.90
3071;DHT22;1546;47.208;9.038;2023-05-10T10:44:37;17.30;99.90
3071;DHT22;1546;47.208;9.038;2023-05-10T10:47:21;17.40;99.90
3071;DHT22;1546;47.208;9.038;2023-05-10T10:50:01;17.40;99.90
3071;DHT22;1546;47.208;9.038;2023-05-10T10:52:31;17.20;99.90
3071;DHT22;1546;47.208;9.038;2023-05-10T10:55:01;17.30;99.90
3071;DHT22;1546;47.208;9.038;2023-05-10T10:57:31;17.20;99.90
3071;DHT22;1546;47.208;9.038;2023-05-10T11:00:19;17.10;99.90
3071;DHT22;1546;47.208;9.038;2023-05-10T11:02:47;17.10;99.90
3071;DHT22;1546;47.208;9.038;2023-05-10T11:05:37;17.00;99.90
3071;DHT22;1546;47.208;9.038;2023-05-10T11:08:13;16.80;99.90
3071;DHT22;1546;47.208;9.038;2023-05-10T11:10:49;16.60;99.90
3071;DHT22;1546;47.208;9.038;2023-05-10T11:13:27;16.50;99.90
3071;DHT22;1546;47.208;9.038;2023-05-10T11:15:54;16.30;99.90
3071;DHT22;1546;47.208;9.038;2023-05-10T11:18:24;16.10;99.90
3071;DHT22;1546;47.208;9.038;2023-05-10T11:20:55;16.00;99.90
3071;DHT22;1546;47.208;9.038;2023-05-10T11:23:23;15.90;99.90
3071;DHT22;1546;47.208;9.038;2023-05-10T11:25:50;15.90;99.90
3071;DHT22;1546;47.208;9.038;2023-05-10T11:28:17;16.00;99.90
3071;DHT22;1546;47.208;9.038;2023-05-10T11:30:44;15.90;99.90
3071;DHT22;1546;47.208;9.038;2023-05-10T11:33:16;15.70;99.90
3071;DHT22;1546;47.208;9.038;2023-05-10T11:35:43;15.60;99.90
3071;DHT22;1546;47.208;9.038;2023-05-10T11:38:12;15.60;99.90
3071;DHT22;1546;47.208;9.038;2023-05-10T11:40:40;15.80;99.90
3071;DHT22;1546;47.208;9.038;2023-05-10T11:43:09;15.90;99.90
3071;DHT22;1546;47.208;9.038;2023-05-10T11:45:36;15.90;99.90
3071;DHT22;1546;47.208;9.038;2023-05-10T11:48:03;16.10;99.90
3071;DHT22;1546;47.208;9.038;2023-05-10T11:50:30;16.20;99.90
3071;DHT22;1546;47.208;9.038;2023-05-10T11:52:58;16.20;99.90
3071;DHT22;1546;47.208;9.038;2023-05-10T11:55:26;16.10;99.90
3071;DHT22;1546;47.208;9.038;2023-05-10T11:57:59;15.90;99.90
3071;DHT22;1546;47.208;9.038;2023-05-10T12:00:26;15.80;99.90
3071;DHT22;1546;47.208;9.038;2023-05-10T12:02:53;16.00;99.90
3071;DHT22;1546;47.208;9.038;2023-05-10T12:05:20;16.10;99.90
3071;DHT22;1546;47.208;9.038;2023-05-10T12:07:47;16.20;99.90
3071;DHT22;1546;47.208;9.038;2023-05-10T12:10:14;16.20;99.90
3071;DHT22;1546;47.208;9.038;2023-05-10T12:12:46;16.10;99.90
3071;DHT22;1546;47.208;9.038;2023-05-10T12:15:18;16.10;99.90
3071;DHT22;1546;47.208;9.038;2023-05-10T12:17:45;16.30;99.90
3071;DHT22;1546;47.208;9.038;2023-05-10T12:20:13;16.50;99.90
3071;DHT22;1546;47.208;9.038;2023-05-10T12:22:41;16.50;99.90
3071;DHT22;1546;47.208;9.038;2023-05-10T12:25:10;16.60;99.90
3071;DHT22;1546;47.208;9.038;2023-05-10T12:27:37;16.70;99.90
3071;DHT22;1546;47.208;9.038;2023-05-10T12:30:06;16.40;99.90
3071;DHT22;1546;47.208;9.038;2023-05-10T12:32:40;16.50;99.90
3071;DHT22;1546;47.208;9.038;2023-05-10T12:35:07;16.40;99.90
3071;DHT22;1546;47.208;9.038;2023-05-10T12:37:35;16.20;99.90
3071;DHT22;1546;47.208;9.038;2023-05-10T12:40:06;15.90;99.90
3071;DHT22;1546;47.208;9.038;2023-05-10T12:42:35;15.80;99.90
3071;DHT22;1546;47.208;9.038;2023-05-10T12:45:02;15.70;99.90
3071;DHT22;1546;47.208;9.038;2023-05-10T12:47:32;15.60;99.90
3071;DHT22;1546;47.208;9.038;2023-05-10T12:50:00;15.60;99.90
3071;DHT22;1546;47.208;9.038;2023-05-10T12:52:28;15.60;99.90
3071;DHT22;1546;47.208;9.038;2023-05-10T12:54:55;15.70;99.90
3071;DHT22;1546;47.208;9.038;2023-05-10T12:57:22;15.80;99.90
3071;DHT22;1546;47.208;9.038;2023-05-10T12:59:49;15.80;99.90
3071;DHT22;1546;47.208;9.038;2023-05-10T13:02:16;16.00;99.90
3071;DHT22;1546;47.208;9.038;2023-05-10T13:04:45;16.10;99.90
3071;DHT22;1546;47.208;9.038;2023-05-10T13:07:12;16.30;99.90
3071;DHT22;1546;47.208;9.038;2023-05-10T13:09:40;16.40;99.90
3071;DHT22;1546;47.208;9.038;2023-05-10T13:12:07;16.50;99.90
3071;DHT22;1546;47.208;9.038;2023-05-10T13:14:33;16.70;99.90
3071;DHT22;1546;47.208;9.038;2023-05-10T13:17:00;16.80;99.90
3071;DHT22;1546;47.208;9.038;2023-05-10T13:19:27;16.70;99.90
3071;DHT22;1546;47.208;9.038;2023-05-10T13:21:55;16.40;99.90
3071;DHT22;1546;47.208;9.038;2023-05-10T13:24:23;16.50;99.90
3071;DHT22;1546;47.208;9.038;2023-05-10T13:26:50;16.40;99.90
3071;DHT22;1546;47.208;9.038;2023-05-10T13:29:17;16.40;99.90
3071;DHT22;1546;47.208;9.038;2023-05-10T13:31:44;16.20;99.90
3071;DHT22;1546;47.208;9.038;2023-05-10T13:34:11;16.00;99.90
3071;DHT22;1546;47.208;9.038;2023-05-10T13:36:38;15.80;99.90
3071;DHT22;1546;47.208;9.038;2023-05-10T13:39:06;15.90;99.90
3071;DHT22;1546;47.208;9.038;2023-05-10T13:41:33;15.80;99.90
3071;DHT22;1546;47.208;9.038;2023-05-10T13:44:00;15.50;99.90
3071;DHT22;1546;47.208;9.038;2023-05-10T13:46:29;15.10;99.90
3071;DHT22;1546;47.208;9.038;2023-05-10T13:48:56;14.70;99.90
3071;DHT22;1546;47.208;9.038;2023-05-10T13:51:23;14.30;99.90
3071;DHT22;1546;47.208;9.038;2023-05-10T13:53:50;14.20;99.90
3071;DHT22;1546;47.208;9.038;2023-05-10T13:56:18;14.00;99.90
3071;DHT22;1546;47.208;9.038;2023-05-10T13:58:45;14.00;99.90
3071;DHT22;1546;47.208;9.038;2023-05-10T14:01:13;14.10;99.90
3071;DHT22;1546;47.208;9.038;2023-05-10T14:03:40;14.40;99.90
3071;DHT22;1546;47.208;9.038;2023-05-10T14:06:07;14.40;99.90
3071;DHT22;1546;47.208;9.038;2023-05-10T14:08:34;14.60;99.90
3071;DHT22;1546;47.208;9.038;2023-05-10T14:11:02;14.80;99.90
3071;DHT22;1546;47.208;9.038;2023-05-10T14:13:30;14.80;99.90
3071;DHT22;1546;47.208;9.038;2023-05-10T14:15:57;14.90;99.90
3071;DHT22;1546;47.208;9.038;2023-05-10T14:18:26;15.10;99.90
3071;DHT22;1546;47.208;9.038;2023-05-10T14:20:52;15.20;99.90
3071;DHT22;1546;47.208;9.038;2023-05-10T14:23:21;15.40;99.90
3071;DHT22;1546;47.208;9.038;2023-05-10T14:25:49;15.60;99.90
3071;DHT22;1546;47.208;9.038;2023-05-10T14:28:16;15.80;99.90
3071;DHT22;1546;47.208;9.038;2023-05-10T14:30:45;15.90;99.90
3071;DHT22;1546;47.208;9.038;2023-05-10T14:33:12;16.00;99.90
3071;DHT22;1546;47.208;9.038;2023-05-10T14:35:39;16.10;99.90
3071;DHT22;1546;47.208;9.038;2023-05-10T14:38:06;16.20;99.90
3071;DHT22;1546;47.208;9.038;2023-05-10T14:40:33;16.40;99.90
3071;DHT22;1546;47.208;9.038;2023-05-10T14:43:00;16.40;99.90
3071;DHT22;1546;47.208;9.038;2023-05-10T14:45:26;16.50;99.90
3071;DHT22;1546;47.208;9.038;2023-05-10T14:47:55;16.30;99.90
3071;DHT22;1546;47.208;9.038;2023-05-10T14:50:22;15.90;99.90
3071;DHT22;1546;47.208;9.038;2023-05-10T14:52:49;15.80;99.90
3071;DHT22;1546;47.208;9.038;2023-05-10T14:55:16;16.10;99.90
3071;DHT22;1546;47.208;9.038;2023-05-10T14:57:43;16.30;99.90
3071;DHT22;1546;47.208;9.038;2023-05-10T15:00:13;16.20;99.90
3071;DHT22;1546;47.208;9.038;2023-05-10T15:02:41;16.50;99.90
3071;DHT22;1546;47.208;9.038;2023-05-10T15:05:10;16.80;99.90
3071;DHT22;1546;47.208;9.038;2023-05-10T15:07:37;16.70;99.90
3071;DHT22;1546;47.208;9.038;2023-05-10T15:10:04;16.80;99.90
3071;DHT22;1546;47.208;9.038;2023-05-10T15:12:31;17.00;99.90
3071;DHT22;1546;47.208;9.038;2023-05-10T15:14:58;16.90;99.90
3071;DHT22;1546;47.208;9.038;2023-05-10T15:17:25;17.20;99.90
3071;DHT22;1546;47.208;9.038;2023-05-10T15:19:52;17.50;99.90
3071;DHT22;1546;47.208;9.038;2023-05-10T15:22:20;17.60;99.90
3071;DHT22;1546;47.208;9.038;2023-05-10T15:24:47;17.60;99.90
3071;DHT22;1546;47.208;9.038;2023-05-10T15:27:14;17.60;99.90
3071;DHT22;1546;47.208;9.038;2023-05-10T15:29:41;17.60;99.90
3071;DHT22;1546;47.208;9.038;2023-05-10T15:32:08;17.40;99.90
3071;DHT22;1546;47.208;9.038;2023-05-10T15:34:35;17.30;99.90
3071;DHT22;1546;47.208;9.038;2023-05-10T15:37:02;16.90;99.90
3071;DHT22;1546;47.208;9.038;2023-05-10T15:39:30;16.50;99.90
3071;DHT22;1546;47.208;9.038;2023-05-10T15:41:57;16.30;99.90
3071;DHT22;1546;47.208;9.038;2023-05-10T15:44:24;16.10;99.90
3071;DHT22;1546;47.208;9.038;2023-05-10T15:46:51;16.10;99.90
3071;DHT22;1546;47.208;9.038;2023-05-10T15:49:17;15.90;99.90
3071;DHT22;1546;47.208;9.038;2023-05-10T15:51:44;15.70;99.90
3071;DHT22;1546;47.208;9.038;2023-05-10T15:54:11;15.80;99.90
3071;DHT22;1546;47.208;9.038;2023-05-10T15:56:39;15.80;99.90
3071;DHT22;1546;47.208;9.038;2023-05-10T15:59:06;16.00;99.90
3071;DHT22;1546;47.208;9.038;2023-05-10T16:01:35;15.90;99.90
3071;DHT22;1546;47.208;9.038;2023-05-10T16:04:02;16.00;99.90
3071;DHT22;1546;47.208;9.038;2023-05-10T16:06:29;16.20;99.90
3071;DHT22;1546;47.208;9.038;2023-05-10T16:08:55;16.20;99.90
3071;DHT22;1546;47.208;9.038;2023-05-10T16:11:22;16.10;99.90
3071;DHT22;1546;47.208;9.038;2023-05-10T16:13:51;15.90;99.90